Time;durP1;ratioP1;P1;durP2;ratioP2;P2;SDS_P1;SDS_P2;PMS_P1;PMS_P2;Temp;Humidity;BMP_temperature;BMP_pressure;BME280_temperature;BME280_humidity;BME280_pressure;Samples;Min_cycle;Max_cycle;Signal;HPM_P1;HPM_P2
2022/08/02 00:01:54;;;;;;;10.77;3.88;;;12.70;99.90;;;;;;5075755;28;20040;-83
2022/08/02 00:04:20;;;;;;;12.73;3.28;;;12.70;99.90;;;;;;5093362;28;20047;-83
2022/08/02 00:06:46;;;;;;;11.15;3.22;;;12.80;99.90;;;;;;5075469;28;20469;-82
2022/08/02 00:09:11;;;;;;;10.30;3.20;;;12.80;99.90;;;;;;5093538;28;20130;-90
2022/08/02 00:11:37;;;;;;;10.00;3.63;;;12.90;99.90;;;;;;5075813;28;20052;-83
2022/08/02 00:14:03;;;;;;;7.63;2.90;;;12.90;99.90;;;;;;5093056;28;20055;-83
2022/08/02 00:16:29;;;;;;;11.30;3.33;;;12.90;99.90;;;;;;5093358;28;20066;-83
2022/08/02 00:18:54;;;;;;;9.95;2.90;;;13.00;99.90;;;;;;5093422;28;20131;-83
2022/08/02 00:21:20;;;;;;;13.43;3.55;;;13.00;99.90;;;;;;5093679;28;20046;-83
2022/08/02 00:23:46;;;;;;;7.63;3.05;;;13.10;99.90;;;;;;5093680;28;20131;-83
2022/08/02 00:26:11;;;;;;;11.27;3.40;;;13.00;99.90;;;;;;5093723;28;20461;-83
2022/08/02 00:28:37;;;;;;;12.05;3.28;;;13.20;99.90;;;;;;5093486;28;20048;-83
2022/08/02 00:31:03;;;;;;;10.98;2.90;;;13.10;99.90;;;;;;5092875;28;20050;-84
2022/08/02 00:33:28;;;;;;;8.27;2.85;;;13.10;99.90;;;;;;5075015;28;20127;-84
2022/08/02 00:35:54;;;;;;;10.68;2.95;;;13.10;99.90;;;;;;5074992;28;20116;-83
2022/08/02 00:38:19;;;;;;;10.50;2.40;;;13.20;99.90;;;;;;5093062;28;20051;-84
2022/08/02 00:40:50;;;;;;;8.93;2.70;;;13.20;99.90;;;;;;5075682;28;20485;-83
2022/08/02 00:43:16;;;;;;;10.30;3.08;;;13.10;99.90;;;;;;5092770;28;20104;-82
2022/08/02 00:45:42;;;;;;;9.73;2.60;;;13.10;99.90;;;;;;5092722;28;20040;-83
2022/08/02 00:48:10;;;;;;;8.75;2.58;;;13.10;99.90;;;;;;5092980;28;20047;-83
2022/08/02 00:50:37;;;;;;;11.13;2.95;;;13.10;99.90;;;;;;5092830;28;20040;-83
2022/08/02 00:53:04;;;;;;;9.68;2.83;;;13.00;99.90;;;;;;5074925;28;20047;-83
2022/08/02 00:55:30;;;;;;;8.05;3.30;;;13.00;99.90;;;;;;5092837;28;20051;-83
2022/08/02 00:57:56;;;;;;;13.32;3.10;;;12.90;99.90;;;;;;5092573;28;20058;-83
2022/08/02 01:00:22;;;;;;;7.72;2.90;;;12.80;99.90;;;;;;5092962;28;20039;-83
2022/08/02 01:03:44;;;;;;;7.63;3.60;;;12.80;99.90;;;;;;5075207;28;20052;-85
2022/08/02 01:06:09;;;;;;;11.15;3.17;;;12.70;99.90;;;;;;5078805;28;20090;-82
2022/08/02 01:08:39;;;;;;;11.90;3.10;;;12.60;99.90;;;;;;5097069;28;20083;-83
2022/08/02 01:11:05;;;;;;;8.32;2.83;;;12.60;99.90;;;;;;5096797;28;20431;-83
2022/08/02 01:13:32;;;;;;;10.32;3.53;;;12.60;99.90;;;;;;5096851;28;20126;-83
2022/08/02 01:16:05;;;;;;;11.10;3.72;;;12.50;99.90;;;;;;5096311;28;20048;-83
2022/08/02 01:18:56;;;;;;;10.27;3.28;;;12.50;99.90;;;;;;5078714;28;20177;-84
2022/08/02 01:21:39;;;;;;;11.38;3.65;;;12.50;99.90;;;;;;5078207;28;20052;-83
2022/08/02 01:24:33;;;;;;;9.98;3.63;;;12.40;99.90;;;;;;5078930;28;20056;-83
2022/08/02 01:27:30;;;;;;;11.05;3.47;;;12.30;99.90;;;;;;5096298;28;20127;-83
2022/08/02 01:29:59;;;;;;;10.45;3.20;;;12.30;99.90;;;;;;5096165;28;20105;-83
2022/08/02 01:32:30;;;;;;;13.40;3.83;;;12.20;99.90;;;;;;5096564;28;20055;-83
2022/08/02 01:35:00;;;;;;;;;;;12.20;99.90;;;;;;5096810;28;20051;-83
2022/08/02 01:37:50;;;;;;;8.38;3.50;;;12.20;99.90;;;;;;5078382;28;20033;-83
2022/08/02 01:40:29;;;;;;;11.82;3.50;;;12.20;99.90;;;;;;5077949;28;20059;-83
2022/08/02 01:42:57;;;;;;;10.35;3.10;;;12.20;99.90;;;;;;5078333;28;20048;-83
2022/08/02 01:45:25;;;;;;;9.65;3.90;;;12.20;99.90;;;;;;5096089;28;20063;-82
2022/08/02 01:47:53;;;;;;;15.65;3.75;;;12.20;99.90;;;;;;5095925;28;20122;-83
2022/08/02 01:50:25;;;;;;;11.70;3.90;;;12.20;99.90;;;;;;5078285;28;20408;-83
2022/08/02 01:52:54;;;;;;;12.65;3.95;;;12.20;99.90;;;;;;5095774;28;20135;-83
2022/08/02 01:55:33;;;;;;;12.77;4.03;;;12.20;99.90;;;;;;5060769;28;20123;-83
2022/08/02 01:58:03;;;;;;;13.65;4.50;;;12.20;99.90;;;;;;5095717;28;20059;-82
2022/08/02 02:00:32;;;;;;;10.48;4.20;;;12.30;99.90;;;;;;5095764;28;20055;-83
2022/08/02 02:03:37;;;;;;;11.15;4.75;;;12.20;99.90;;;;;;5095777;28;20043;-82
2022/08/02 02:06:05;;;;;;;11.52;4.47;;;12.20;99.90;;;;;;5095243;28;20059;-82
2022/08/02 02:08:38;;;;;;;15.77;4.60;;;12.20;99.90;;;;;;5077139;28;20089;-83
2022/08/02 02:11:05;;;;;;;13.52;4.05;;;12.20;99.90;;;;;;5095430;28;20055;-82
2022/08/02 02:13:32;;;;;;;12.05;4.22;;;12.20;99.90;;;;;;5077705;28;20052;-83
2022/08/02 02:16:01;;;;;;;11.98;5.10;;;12.30;99.90;;;;;;5094005;28;20097;-83
2022/08/02 02:18:28;;;;;;;16.52;4.82;;;12.20;99.90;;;;;;5095291;28;20051;-82
2022/08/02 02:20:54;;;;;;;12.25;4.50;;;12.30;99.90;;;;;;5077327;28;20473;-82
2022/08/02 02:23:20;;;;;;;13.75;4.93;;;12.20;99.90;;;;;;5060510;28;20059;-83
2022/08/02 02:25:46;;;;;;;8.95;4.53;;;12.40;99.90;;;;;;5095063;28;20131;-82
2022/08/02 02:28:20;;;;;;;14.18;4.72;;;12.20;99.90;;;;;;5076871;28;20456;-82
2022/08/02 02:30:49;;;;;;;14.63;4.88;;;12.20;99.90;;;;;;5077063;28;20367;-82
2022/08/02 02:33:20;;;;;;;11.65;5.45;;;12.30;99.90;;;;;;5077205;28;20489;-82
2022/08/02 02:35:50;;;;;;;13.32;5.53;;;12.20;99.90;;;;;;5095108;28;20047;-83
2022/08/02 02:38:19;;;;;;;11.93;4.70;;;12.20;99.90;;;;;;5095254;28;20083;-82
2022/08/02 02:40:46;;;;;;;11.68;4.25;;;12.30;99.90;;;;;;5076917;28;20043;-88
2022/08/02 02:43:12;;;;;;;13.27;5.35;;;12.30;99.90;;;;;;5077133;28;20063;-82
2022/08/02 02:45:39;;;;;;;12.20;5.00;;;12.30;99.90;;;;;;5076370;28;20511;-82
2022/08/02 02:48:07;;;;;;;16.60;6.07;;;12.50;99.90;;;;;;5077150;28;20044;-82
2022/08/02 02:50:37;;;;;;;10.80;5.13;;;12.30;99.90;;;;;;5095028;28;20122;-82
2022/08/02 02:53:03;;;;;;;17.13;5.55;;;12.30;99.90;;;;;;5094492;28;20067;-82
2022/08/02 02:55:30;;;;;;;15.13;5.10;;;12.40;99.90;;;;;;5059797;28;20049;-82
2022/08/02 02:57:58;;;;;;;15.18;5.32;;;12.40;99.90;;;;;;5076645;28;20381;-82
2022/08/02 03:03:10;;;;;;;11.63;5.22;;;12.40;99.90;;;;;;5062391;28;20098;-83
2022/08/02 03:05:36;;;;;;;12.38;5.25;;;12.40;99.90;;;;;;5042492;28;20064;-82
2022/08/02 03:08:02;;;;;;;14.18;5.25;;;12.50;99.90;;;;;;5094522;28;20044;-82
2022/08/02 03:10:27;;;;;;;12.90;5.07;;;12.40;99.90;;;;;;5094150;28;20055;-82
2022/08/02 03:12:54;;;;;;;14.38;5.53;;;12.50;99.90;;;;;;5094201;28;20048;-83
2022/08/02 03:15:21;;;;;;;23.15;6.38;;;12.40;99.90;;;;;;5076781;28;20052;-83
2022/08/02 03:17:47;;;;;;;11.13;5.53;;;12.30;99.90;;;;;;5094417;28;20043;-84
2022/08/02 03:20:17;;;;;;;17.13;6.25;;;12.30;99.90;;;;;;5093963;28;20056;-83
2022/08/02 03:22:45;;;;;;;13.93;6.35;;;12.40;99.90;;;;;;5094339;28;20131;-83
2022/08/02 03:25:15;;;;;;;19.50;5.78;;;12.40;99.90;;;;;;5076095;28;20105;-82
2022/08/02 03:27:41;;;;;;;15.82;5.75;;;12.30;99.90;;;;;;5076148;28;20126;-83
2022/08/02 03:30:10;;;;;;;12.48;5.85;;;12.30;99.90;;;;;;5076220;28;20446;-83
2022/08/02 03:32:38;;;;;;;14.02;6.10;;;12.20;99.90;;;;;;5076151;28;20083;-81
2022/08/02 03:35:06;;;;;;;11.10;6.00;;;12.20;99.90;;;;;;5094080;28;20123;-83
2022/08/02 03:37:34;;;;;;;12.32;6.15;;;12.20;99.90;;;;;;5094499;28;20376;-82
2022/08/02 03:40:00;;;;;;;17.55;6.35;;;12.20;99.90;;;;;;5076232;28;20058;-83
2022/08/02 03:42:27;;;;;;;10.80;5.45;;;12.20;99.90;;;;;;5075557;28;20050;-84
2022/08/02 03:44:55;;;;;;;12.60;6.38;;;12.20;99.90;;;;;;5075801;28;20064;-82
2022/08/02 03:47:21;;;;;;;16.70;5.95;;;12.20;99.90;;;;;;5075744;28;20495;-89
2022/08/02 03:49:48;;;;;;;12.18;5.60;;;12.20;99.90;;;;;;5075389;28;20051;-82
2022/08/02 03:52:14;;;;;;;13.23;6.15;;;12.20;99.90;;;;;;5093505;28;20078;-83
2022/08/02 03:54:40;;;;;;;13.50;5.65;;;12.20;99.90;;;;;;5075494;28;20048;-83
2022/08/02 03:57:06;;;;;;;17.42;6.13;;;12.30;99.90;;;;;;5058080;28;20047;-82
2022/08/02 03:59:44;;;;;;;14.73;5.95;;;12.30;99.90;;;;;;5093649;28;20047;-82
2022/08/02 04:02:10;;;;;;;12.38;6.10;;;12.30;99.90;;;;;;5093400;28;20052;-82
2022/08/02 04:04:36;;;;;;;11.45;6.03;;;12.30;99.90;;;;;;5075496;28;20061;-82
2022/08/02 04:07:03;;;;;;;12.48;6.18;;;12.30;99.90;;;;;;5058679;28;20044;-83
2022/08/02 04:09:29;;;;;;;12.27;6.07;;;12.30;99.90;;;;;;5093056;28;20052;-83
2022/08/02 04:11:54;;;;;;;19.92;6.65;;;12.30;99.90;;;;;;5075367;28;20055;-82
2022/08/02 04:14:20;;;;;;;14.40;6.43;;;12.30;99.90;;;;;;5075626;28;20372;-83
2022/08/02 04:16:51;;;;;;;16.67;6.20;;;12.40;99.90;;;;;;5074949;28;20057;-83
2022/08/02 04:19:31;;;;;;;17.67;6.05;;;12.50;99.90;;;;;;5075268;28;20102;-82
2022/08/02 04:22:00;;;;;;;14.85;5.72;;;12.40;99.90;;;;;;5092945;28;20548;-83
2022/08/02 04:24:31;;;;;;;12.63;6.05;;;12.60;99.90;;;;;;5074693;28;20063;-83
2022/08/02 04:26:58;;;;;;;14.50;5.55;;;12.50;99.90;;;;;;5075275;28;20070;-83
2022/08/02 04:29:26;;;;;;;11.95;5.75;;;12.50;99.90;;;;;;5057992;28;20425;-82
2022/08/02 04:31:53;;;;;;;13.77;6.15;;;12.50;99.90;;;;;;5058524;28;20421;-83
2022/08/02 04:34:19;;;;;;;14.18;6.53;;;12.60;99.90;;;;;;5074996;28;20051;-82
2022/08/02 04:36:46;;;;;;;14.95;6.00;;;12.60;99.90;;;;;;5074768;28;20044;-82
2022/08/02 04:39:12;;;;;;;15.02;5.72;;;12.60;99.90;;;;;;5078201;28;20056;-82
2022/08/02 04:41:38;;;;;;;12.25;6.03;;;12.60;99.90;;;;;;5097037;28;20165;-82
2022/08/02 04:44:04;;;;;;;11.52;5.68;;;12.60;99.90;;;;;;5097164;28;20040;-82
2022/08/02 04:46:30;;;;;;;11.43;5.38;;;12.60;99.90;;;;;;5097019;28;20051;-82
2022/08/02 04:48:56;;;;;;;15.77;5.97;;;12.70;99.90;;;;;;5079003;28;20048;-82
2022/08/02 04:51:21;;;;;;;9.57;5.43;;;12.80;99.90;;;;;;5096651;28;20493;-83
2022/08/02 04:53:47;;;;;;;12.30;6.10;;;12.70;99.90;;;;;;5096720;28;20048;-82
2022/08/02 04:56:12;;;;;;;15.18;6.43;;;12.70;99.90;;;;;;5062047;28;20040;-83
2022/08/02 04:58:38;;;;;;;11.10;6.13;;;12.80;99.90;;;;;;5078658;28;20555;-82
2022/08/02 05:01:04;;;;;;;13.25;5.85;;;12.80;99.90;;;;;;5078566;28;20063;-83
2022/08/02 05:03:29;;;;;;;11.05;5.50;;;12.80;99.90;;;;;;5096570;28;20059;-82
2022/08/02 05:05:55;;;;;;;11.55;5.82;;;12.80;99.90;;;;;;5078528;28;20533;-82
2022/08/02 05:08:21;;;;;;;14.23;5.70;;;12.90;99.90;;;;;;5078354;28;20048;-86
2022/08/02 05:10:46;;;;;;;8.93;4.75;;;13.10;99.90;;;;;;5096614;28;20051;-83
2022/08/02 05:13:12;;;;;;;13.93;6.05;;;13.00;99.90;;;;;;5096577;28;20473;-82
2022/08/02 05:15:37;;;;;;;16.17;5.35;;;13.00;99.90;;;;;;5096208;28;20044;-82
2022/08/02 05:18:03;;;;;;;13.25;5.45;;;13.10;99.90;;;;;;5096057;28;20048;-82
2022/08/02 05:20:29;;;;;;;12.25;5.32;;;13.10;99.90;;;;;;5095999;28;20389;-82
2022/08/02 05:22:55;;;;;;;11.40;5.22;;;13.20;99.90;;;;;;5077734;28;20127;-82
2022/08/02 05:25:20;;;;;;;8.65;4.82;;;13.20;99.90;;;;;;5096209;28;20044;-82
2022/08/02 05:27:46;;;;;;;11.13;4.93;;;13.40;99.90;;;;;;5045031;28;20051;-82
2022/08/02 05:30:12;;;;;;;11.65;5.88;;;13.40;99.90;;;;;;5096313;28;20040;-82
2022/08/02 05:32:46;;;;;;;10.20;5.40;;;13.50;99.90;;;;;;5077688;28;20055;-82
2022/08/02 05:35:14;;;;;;;10.07;5.45;;;13.60;99.90;;;;;;5095655;28;20050;-82
2022/08/02 05:37:39;;;;;;;11.15;5.38;;;13.70;99.90;;;;;;5095716;28;20397;-83
2022/08/02 05:40:06;;;;;;;11.00;5.55;;;13.70;99.90;;;;;;5061228;28;20052;-82
2022/08/02 05:42:32;;;;;;;17.33;5.20;;;13.80;99.90;;;;;;5095944;28;20040;-82
2022/08/02 05:44:58;;;;;;;11.80;5.60;;;13.90;99.90;;;;;;5077970;28;20047;-83
2022/08/02 05:47:24;;;;;;;10.73;5.68;;;14.00;99.90;;;;;;5095941;28;20040;-81
2022/08/02 05:49:50;;;;;;;9.75;4.63;;;14.10;99.90;;;;;;5094457;28;20482;-82
2022/08/02 05:52:18;;;;;;;15.13;5.45;;;14.10;99.90;;;;;;5095522;28;20084;-83
2022/08/02 05:54:49;;;;;;;9.65;5.22;;;14.30;99.90;;;;;;5095281;28;20072;-82
2022/08/02 05:57:53;;;;;;;16.50;5.82;;;14.40;99.90;;;;;;5060854;28;20135;-82
2022/08/02 06:00:20;;;;;;;10.75;5.32;;;14.50;99.90;;;;;;5016669;28;20140;-82
2022/08/02 06:02:51;;;;;;;11.25;5.65;;;14.60;99.90;;;;;;5033097;28;20084;-82
2022/08/02 06:05:20;;;;;;;12.90;4.88;;;14.60;99.90;;;;;;5032839;28;20053;-81
2022/08/02 06:07:49;;;;;;;12.13;5.40;;;14.80;99.90;;;;;;5032878;28;20075;-90
2022/08/02 06:10:17;;;;;;;12.90;4.50;;;14.90;99.90;;;;;;5032885;28;20403;-82
2022/08/02 06:12:46;;;;;;;11.45;4.57;;;15.00;99.90;;;;;;5032837;28;20056;-81
2022/08/02 06:15:14;;;;;;;12.18;4.95;;;15.20;99.90;;;;;;5016642;28;20083;-83
2022/08/02 06:17:40;;;;;;;10.30;4.35;;;15.30;99.90;;;;;;5032507;28;20060;-82
2022/08/02 06:20:07;;;;;;;12.73;4.78;;;15.40;99.90;;;;;;5032425;28;20060;-82
2022/08/02 06:22:34;;;;;;;9.15;4.05;;;15.50;99.90;;;;;;5016063;28;20045;-82
2022/08/02 06:25:01;;;;;;;11.15;4.80;;;15.60;99.90;;;;;;5032562;28;20079;-82
2022/08/02 06:27:27;;;;;;;8.43;4.47;;;15.70;99.90;;;;;;5015576;28;20049;-81
2022/08/02 06:29:54;;;;;;;9.55;4.45;;;15.90;99.90;;;;;;5032426;28;20065;-82
2022/08/02 06:32:20;;;;;;;14.82;4.93;;;16.00;99.90;;;;;;5032326;28;20089;-82
2022/08/02 06:34:45;;;;;;;11.63;4.72;;;16.20;99.90;;;;;;5016148;28;20064;-81
2022/08/02 06:37:25;;;;;;;8.70;3.85;;;16.30;99.90;;;;;;5080058;28;20051;-82
2022/08/02 06:39:57;;;;;;;8.90;4.72;;;16.40;99.90;;;;;;5076890;28;20481;-82
2022/08/02 06:42:39;;;;;;;9.07;4.32;;;16.70;99.90;;;;;;5076698;28;20078;-82
2022/08/02 06:45:05;;;;;;;14.00;4.38;;;16.80;99.90;;;;;;5094333;28;20519;-83
2022/08/02 06:47:30;;;;;;;9.40;4.57;;;16.90;99.90;;;;;;5076755;28;20079;-82
2022/08/02 06:49:57;;;;;;;13.88;4.70;;;17.00;99.90;;;;;;5076578;28;20079;-83
2022/08/02 06:52:27;;;;;;;9.40;4.68;;;17.00;99.90;;;;;;5076545;28;20488;-83
2022/08/02 06:54:54;;;;;;;7.75;3.72;;;17.10;99.90;;;;;;5094493;28;20048;-83
2022/08/02 06:57:20;;;;;;;7.03;3.72;;;17.20;99.90;;;;;;5076016;28;20392;-83
2022/08/02 06:59:46;;;;;;;11.27;4.25;;;17.20;99.90;;;;;;5094197;28;20131;-82
2022/08/02 07:02:11;;;;;;;8.48;4.15;;;17.40;99.90;;;;;;5076141;28;20066;-82
2022/08/02 07:04:37;;;;;;;11.57;4.05;;;17.50;99.90;;;;;;5076371;28;20416;-82
2022/08/02 07:07:02;;;;;;;8.38;3.72;;;17.60;99.90;;;;;;5094288;28;20055;-82
2022/08/02 07:09:28;;;;;;;9.05;3.88;;;17.80;99.90;;;;;;5094164;28;20055;-83
2022/08/02 07:11:54;;;;;;;9.82;3.05;;;18.00;99.90;;;;;;5093977;28;20393;-83
2022/08/02 07:14:20;;;;;;;9.13;3.20;;;18.30;99.90;;;;;;5075026;28;20052;-83
2022/08/02 07:16:45;;;;;;;9.05;3.45;;;18.50;99.90;;;;;;5099430;28;20084;-83
2022/08/02 07:19:29;;;;;;;8.48;3.25;;;18.90;99.90;;;;;;5089448;28;20054;-83
2022/08/02 07:21:55;;;;;;;9.00;3.67;;;19.40;99.90;;;;;;5096292;28;20051;-83
2022/08/02 07:24:21;;;;;;;8.15;3.33;;;19.50;99.90;;;;;;5113955;28;20419;-84
2022/08/02 07:26:46;;;;;;;6.35;2.90;;;19.50;99.90;;;;;;5113995;28;20464;-85
2022/08/02 07:29:12;;;;;;;10.30;2.90;;;19.50;99.90;;;;;;5114363;28;20385;-83
2022/08/02 07:31:37;;;;;;;11.40;2.63;;;19.60;99.90;;;;;;5114143;28;20048;-83
2022/08/02 07:34:03;;;;;;;6.55;2.58;;;19.80;99.90;;;;;;5095978;28;20043;-83
2022/08/02 07:36:29;;;;;;;10.13;3.30;;;20.00;99.90;;;;;;5078935;28;20047;-82
2022/08/02 07:38:56;;;;;;;5.57;2.50;;;20.10;99.90;;;;;;5113847;28;20380;-82
2022/08/02 07:41:22;;;;;;;10.20;2.65;;;20.20;99.90;;;;;;5113646;28;20051;-83
2022/08/02 07:43:48;;;;;;;8.48;2.47;;;20.30;99.90;;;;;;5095740;28;20553;-82
2022/08/02 07:46:13;;;;;;;6.35;2.80;;;20.30;99.90;;;;;;5113925;28;20047;-82
2022/08/02 07:48:39;;;;;;;10.93;2.70;;;20.30;99.90;;;;;;5098585;28;20070;-85
2022/08/02 07:51:05;;;;;;;6.85;2.55;;;20.60;99.90;;;;;;5113723;28;20396;-83
2022/08/02 07:53:30;;;;;;;6.90;2.85;;;21.00;99.90;;;;;;5113654;28;20547;-83
2022/08/02 07:55:56;;;;;;;7.30;2.63;;;21.60;99.90;;;;;;5113527;28;20043;-83
2022/08/02 07:58:21;;;;;;;8.35;2.42;;;22.20;99.90;;;;;;5095375;28;20111;-82
2022/08/02 08:00:47;;;;;;;7.03;2.17;;;22.70;99.90;;;;;;5113565;28;20047;-87
2022/08/02 08:03:13;;;;;;;5.97;2.25;;;23.10;99.90;;;;;;5095163;28;20106;-83
2022/08/02 08:05:39;;;;;;;8.85;2.75;;;23.20;99.90;;;;;;5095630;28;20369;-83
2022/08/02 08:08:05;;;;;;;6.78;2.33;;;23.40;99.90;;;;;;5095485;28;20058;-81
2022/08/02 08:10:31;;;;;;;4.60;2.08;;;23.70;99.00;;;;;;5095784;28;20044;-83
2022/08/02 08:12:57;;;;;;;9.45;2.38;;;24.10;93.10;;;;;;5112695;28;20469;-83
2022/08/02 08:15:23;;;;;;;5.95;2.35;;;24.40;92.40;;;;;;5095008;28;20426;-83
2022/08/02 08:17:49;;;;;;;8.45;1.98;;;24.70;86.00;;;;;;5112043;28;20060;-83
2022/08/02 08:20:14;;;;;;;4.88;1.70;;;25.10;80.50;;;;;;5094981;28;20051;-83
2022/08/02 08:22:40;;;;;;;7.10;2.20;;;25.60;76.00;;;;;;5095398;28;20047;-83
2022/08/02 08:25:06;;;;;;;5.75;2.00;;;26.20;70.20;;;;;;5095310;28;20043;-83
2022/08/02 08:27:31;;;;;;;3.80;1.60;;;26.70;67.90;;;;;;5095271;28;20044;-83
2022/08/02 08:29:57;;;;;;;5.60;1.60;;;27.00;65.60;;;;;;5112844;28;20050;-81
2022/08/02 08:32:23;;;;;;;3.53;1.55;;;27.40;62.20;;;;;;5095127;28;20056;-83
2022/08/02 08:34:50;;;;;;;8.25;1.83;;;27.40;61.60;;;;;;5113315;28;20059;-83
2022/08/02 08:37:16;;;;;;;5.15;1.60;;;27.20;60.20;;;;;;5094455;28;20068;-82
2022/08/02 08:39:42;;;;;;;4.78;1.48;;;27.00;61.30;;;;;;5094939;28;20058;-82
2022/08/02 08:42:08;;;;;;;6.47;1.70;;;27.50;60.90;;;;;;5112970;28;20051;-86
2022/08/02 08:44:35;;;;;;;5.38;1.52;;;28.20;59.90;;;;;;5112696;28;20040;-84
2022/08/02 08:47:02;;;;;;;2.92;1.50;;;28.60;58.70;;;;;;5095166;28;20059;-82
2022/08/02 08:49:35;;;;;;;4.05;1.52;;;29.00;56.70;;;;;;5112896;28;20130;-84
2022/08/02 08:52:04;;;;;;;9.35;2.05;;;29.20;56.00;;;;;;5112799;28;20477;-83
2022/08/02 08:54:31;;;;;;;6.82;2.03;;;29.50;55.20;;;;;;5112930;28;20090;-84
2022/08/02 08:56:58;;;;;;;3.35;1.73;;;29.80;54.70;;;;;;5112609;28;20625;-83
2022/08/02 08:59:23;;;;;;;3.97;1.65;;;29.90;54.00;;;;;;5112574;28;20043;-83
2022/08/02 09:01:50;;;;;;;3.45;1.80;;;30.00;53.70;;;;;;5112953;28;20089;-81
2022/08/02 09:04:17;;;;;;;6.57;2.00;;;30.10;54.00;;;;;;5094723;28;20437;-83
2022/08/02 09:06:42;;;;;;;6.65;1.80;;;30.10;52.80;;;;;;5112677;28;20063;-82
2022/08/02 09:09:08;;;;;;;4.50;1.80;;;30.30;52.10;;;;;;5094988;28;20409;-83
2022/08/02 09:11:34;;;;;;;5.28;1.58;;;30.70;52.20;;;;;;5112631;28;20074;-83
2022/08/02 09:14:01;;;;;;;6.25;2.00;;;31.00;52.60;;;;;;5080280;28;20540;-84
2022/08/02 09:16:40;;;;;;;6.32;1.80;;;31.40;51.10;;;;;;5112682;28;20484;-86
2022/08/02 09:19:23;;;;;;;5.40;1.85;;;31.70;49.80;;;;;;5112758;28;20059;-85
2022/08/02 09:21:51;;;;;;;6.65;2.00;;;31.60;50.10;;;;;;5112896;28;20180;-83
2022/08/02 09:24:23;;;;;;;6.90;1.90;;;31.90;49.40;;;;;;5095882;28;20093;-83
2022/08/02 09:26:50;;;;;;;4.97;2.17;;;32.40;49.30;;;;;;5098236;28;20489;-83
2022/08/02 09:29:20;;;;;;;4.85;2.22;;;32.80;48.90;;;;;;5098675;28;20058;-83
2022/08/02 09:31:46;;;;;;;6.03;2.03;;;33.20;48.20;;;;;;5116430;28;20047;-85
2022/08/02 09:34:12;;;;;;;3.80;1.77;;;33.10;47.80;;;;;;5116463;28;20043;-86
2022/08/02 09:36:46;;;;;;;3.67;2.00;;;32.90;48.30;;;;;;5116205;28;20477;-85
2022/08/02 09:39:13;;;;;;;3.85;2.00;;;32.70;48.30;;;;;;5115938;28;20532;-84
2022/08/02 09:41:41;;;;;;;4.15;2.05;;;32.80;48.40;;;;;;5098238;28;20089;-84
2022/08/02 09:44:10;;;;;;;4.25;1.88;;;32.90;48.70;;;;;;5098255;28;20046;-84
2022/08/02 09:46:40;;;;;;;6.32;1.80;;;33.20;48.50;;;;;;5116070;28;20083;-84
2022/08/02 09:49:15;;;;;;;6.82;2.83;;;33.40;48.40;;;;;;5097521;28;20071;-84
2022/08/02 09:51:53;;;;;;;4.78;2.38;;;33.40;47.60;;;;;;5080864;28;20043;-86
2022/08/02 09:54:28;;;;;;;4.07;1.88;;;33.40;48.60;;;;;;5081380;28;20112;-84
2022/08/02 09:56:56;;;;;;;5.60;1.80;;;33.50;48.20;;;;;;5115796;28;20047;-84
2022/08/02 09:59:23;;;;;;;4.32;2.28;;;33.20;48.70;;;;;;5081444;28;20061;-84
2022/08/02 10:01:50;;;;;;;3.42;2.42;;;33.00;48.50;;;;;;5115953;28;20048;-84
2022/08/02 10:04:19;;;;;;;3.47;2.00;;;32.50;49.40;;;;;;5115545;28;20047;-85
2022/08/02 10:06:45;;;;;;;6.03;2.77;;;32.00;50.40;;;;;;5115786;28;20373;-84
2022/08/02 10:09:12;;;;;;;6.05;2.05;;;31.50;51.30;;;;;;5097648;28;20057;-83
2022/08/02 10:11:38;;;;;;;4.28;2.10;;;30.90;52.80;;;;;;5115637;28;20102;-84
2022/08/02 10:14:06;;;;;;;6.10;2.60;;;30.60;52.90;;;;;;5115406;28;20115;-84
2022/08/02 10:16:37;;;;;;;5.38;2.30;;;30.60;53.50;;;;;;5097176;28;20039;-84
2022/08/02 10:19:03;;;;;;;4.60;2.67;;;30.80;53.60;;;;;;5115170;28;20052;-84
2022/08/02 10:21:50;;;;;;;3.70;2.40;;;30.80;54.30;;;;;;5097255;28;20354;-85
2022/08/02 10:24:19;;;;;;;8.20;2.88;;;31.00;54.10;;;;;;5097577;28;20048;-84
2022/08/02 10:26:47;;;;;;;5.25;2.65;;;31.70;52.90;;;;;;5097703;28;20043;-85
2022/08/02 10:29:26;;;;;;;7.45;2.97;;;32.20;52.90;;;;;;5116363;28;20052;-86
2022/08/02 10:32:03;;;;;;;6.55;2.97;;;32.80;51.70;;;;;;5115334;28;20055;-87
2022/08/02 10:34:36;;;;;;;6.18;2.10;;;33.30;49.90;;;;;;5097564;28;20047;-85
2022/08/02 10:37:05;;;;;;;4.07;2.60;;;33.50;50.00;;;;;;5079327;28;20127;-85
2022/08/02 10:39:41;;;;;;;6.20;2.53;;;33.50;50.60;;;;;;5115070;28;20058;-87
2022/08/02 10:42:07;;;;;;;7.63;2.40;;;33.80;49.50;;;;;;5096595;28;20050;-85
2022/08/02 10:44:34;;;;;;;3.80;2.00;;;34.10;48.60;;;;;;5097132;28;20051;-84
2022/08/02 10:47:20;;;;;;;5.10;1.83;;;34.10;48.20;;;;;;5079886;28;20036;-86
2022/08/02 10:49:57;;;;;;;5.03;2.30;;;33.90;48.20;;;;;;5096915;28;20085;-85
2022/08/02 10:52:26;;;;;;;4.53;2.20;;;33.80;48.00;;;;;;5114809;28;20051;-86
2022/08/02 10:55:01;;;;;;;4.70;2.07;;;33.60;47.50;;;;;;5096613;28;20040;-85
2022/08/02 10:57:29;;;;;;;4.93;2.10;;;33.10;49.40;;;;;;5114556;28;20126;-84
2022/08/02 11:00:23;;;;;;;5.40;2.42;;;33.10;50.20;;;;;;5114768;28;20043;-84
2022/08/02 11:02:50;;;;;;;5.85;1.75;;;33.60;47.70;;;;;;5096361;28;20051;-87
2022/08/02 11:05:28;;;;;;;4.45;1.77;;;34.20;47.80;;;;;;5095971;28;20492;-85
2022/08/02 11:07:54;;;;;;;4.65;2.10;;;34.80;49.00;;;;;;5114534;28;20454;-84
2022/08/02 11:10:25;;;;;;;3.75;1.70;;;35.20;47.20;;;;;;5114624;28;20134;-81
2022/08/02 11:13:14;;;;;;;4.63;2.03;;;35.30;45.00;;;;;;5096553;28;20044;-83
2022/08/02 11:15:51;;;;;;;3.60;1.60;;;34.40;44.60;;;;;;5096287;28;20187;-87
2022/08/02 11:18:18;;;;;;;2.33;1.77;;;33.60;46.60;;;;;;5095624;28;20052;-84
2022/08/02 11:20:44;;;;;;;3.03;1.42;;;33.20;47.70;;;;;;5114457;28;20127;-85
2022/08/02 11:23:42;;;;;;;2.70;1.40;;;33.10;47.80;;;;;;5114155;28;20177;-84
2022/08/02 11:26:28;;;;;;;2.92;1.40;;;33.20;47.20;;;;;;4995612;28;20112;-85
2022/08/02 11:28:55;;;;;;;3.70;1.45;;;33.10;48.00;;;;;;4979240;28;20053;-85
2022/08/02 11:31:21;;;;;;;1.17;1.08;;;33.10;47.50;;;;;;5011816;28;20136;-85
2022/08/02 11:33:48;;;;;;;1.35;1.20;;;33.20;46.70;;;;;;5011779;28;20532;-84
2022/08/02 11:36:14;;;;;;;1.83;1.17;;;33.20;47.40;;;;;;4994968;28;20137;-84
2022/08/02 11:38:40;;;;;;;1.95;1.40;;;33.30;47.20;;;;;;5011623;28;20478;-82
2022/08/02 11:41:06;;;;;;;3.53;1.50;;;33.50;46.40;;;;;;5011234;28;20415;-81
2022/08/02 11:43:33;;;;;;;1.75;1.35;;;33.50;46.40;;;;;;4994983;28;20095;-84
2022/08/02 11:46:03;;;;;;;4.45;1.42;;;33.60;46.80;;;;;;5011412;28;20041;-85
2022/08/02 11:48:29;;;;;;;1.77;1.63;;;33.80;47.00;;;;;;4994746;28;20547;-85
2022/08/02 11:51:11;;;;;;;2.83;1.63;;;34.10;46.30;;;;;;4995055;28;20089;-84
2022/08/02 11:53:41;;;;;;;3.15;2.17;;;34.30;47.60;;;;;;4994750;28;20045;-83
2022/08/02 11:56:07;;;;;;;4.25;2.22;;;34.50;47.10;;;;;;4978829;28;20049;-84
2022/08/02 11:58:33;;;;;;;4.97;2.15;;;34.40;46.70;;;;;;5011170;28;20061;-85
2022/08/02 12:00:58;;;;;;;4.50;2.20;;;34.30;47.40;;;;;;5032297;28;20516;-85
2022/08/02 12:03:24;;;;;;;5.22;2.80;;;34.00;48.50;;;;;;5095246;28;20484;-82
2022/08/02 12:05:50;;;;;;;4.05;2.08;;;33.90;48.40;;;;;;5113506;28;20047;-88
2022/08/02 12:08:16;;;;;;;4.95;2.97;;;33.60;49.30;;;;;;5113236;28;20063;-84
2022/08/02 12:10:49;;;;;;;4.72;2.20;;;33.40;48.80;;;;;;5113710;28;20107;-84
2022/08/02 12:13:14;;;;;;;4.22;2.47;;;33.20;50.10;;;;;;5113496;28;20072;-85
2022/08/02 12:15:44;;;;;;;6.07;2.72;;;32.90;50.50;;;;;;5113232;28;20043;-84
2022/08/02 12:21:24;;;;;;;3.33;2.20;;;32.60;50.10;;;;;;5095076;28;20346;-84
2022/08/02 12:23:50;;;;;;;4.93;2.65;;;32.30;51.50;;;;;;5095331;28;20191;-86
2022/08/02 12:26:16;;;;;;;3.05;1.40;;;32.50;51.90;;;;;;5113173;28;20508;-86
2022/08/02 12:28:42;;;;;;;2.42;1.40;;;32.40;50.00;;;;;;5113841;28;20044;-85
2022/08/02 12:31:09;;;;;;;2.85;1.65;;;32.00;50.70;;;;;;5113129;28;20505;-86
2022/08/02 12:33:50;;;;;;;2.60;1.90;;;31.90;51.90;;;;;;5094929;28;20484;-85
2022/08/02 12:36:28;;;;;;;4.18;2.10;;;32.00;52.30;;;;;;5113258;28;20115;-85
2022/08/02 12:38:59;;;;;;;2.50;1.70;;;32.20;51.70;;;;;;5095089;28;20155;-86
2022/08/02 12:41:26;;;;;;;4.20;1.65;;;32.50;51.40;;;;;;5112984;28;20043;-87
2022/08/02 12:43:53;;;;;;;6.65;2.08;;;32.40;51.20;;;;;;5112830;28;20054;-85
2022/08/02 12:46:21;;;;;;;2.53;1.67;;;32.20;51.10;;;;;;5112800;28;20051;-84
2022/08/02 12:48:47;;;;;;;1.90;1.60;;;31.80;51.70;;;;;;5095200;28;20131;-84
2022/08/02 12:51:24;;;;;;;1.83;1.40;;;31.20;52.90;;;;;;5112907;28;20467;-91
2022/08/02 12:53:52;;;;;;;2.03;1.55;;;30.70;52.80;;;;;;5094451;28;20520;-86
2022/08/02 12:56:37;;;;;;;3.55;1.92;;;30.10;55.20;;;;;;5094645;28;20043;-84
2022/08/02 12:59:03;;;;;;;3.75;1.65;;;29.80;55.00;;;;;;5078827;28;20048;-85